createdAt,value
2017-11-03T00:02:03.763Z,78.48
2017-11-03T00:04:31.383Z,78.89
2017-11-03T00:06:59.060Z,78.74
2017-11-03T00:09:26.778Z,78.89
2017-11-03T00:11:54.397Z,79.09
2017-11-03T00:14:22.070Z,79.06
2017-11-03T00:16:49.735Z,79.19
2017-11-03T00:19:17.352Z,79.08
2017-11-03T00:21:45.015Z,79.53
2017-11-03T00:24:12.739Z,79.36
2017-11-03T00:26:40.345Z,79.29
2017-11-03T00:29:07.975Z,79.73
2017-11-03T00:31:35.647Z,79.95
2017-11-03T00:34:03.264Z,79.77
2017-11-03T00:36:30.871Z,80.00
2017-11-03T00:38:58.539Z,80.19
2017-11-03T00:41:26.148Z,80.21
2017-11-03T00:43:53.808Z,80.24
2017-11-03T00:46:21.523Z,80.33
2017-11-03T00:48:49.187Z,80.33
2017-11-03T00:51:16.851Z,80.32
2017-11-03T00:53:44.569Z,80.37
2017-11-03T00:56:12.167Z,80.79
2017-11-03T00:58:39.836Z,81.55
2017-11-03T01:01:07.499Z,81.33
2017-11-03T01:03:35.107Z,81.40
2017-11-03T01:06:02.731Z,81.39
2017-11-03T01:08:30.391Z,81.16
2017-11-03T01:10:58.008Z,81.53
2017-11-03T01:13:25.628Z,81.29
2017-11-03T01:15:53.348Z,81.43
2017-11-03T01:18:20.956Z,81.37
2017-11-03T01:20:48.568Z,81.22
2017-11-03T01:23:16.220Z,81.14
2017-11-03T01:25:43.832Z,81.11
2017-11-03T01:28:11.443Z,81.11
2017-11-03T01:30:39.115Z,81.15
2017-11-03T01:33:06.738Z,81.51
2017-11-03T01:35:34.355Z,81.28
2017-11-03T01:38:02.076Z,81.51
2017-11-03T01:40:29.751Z,81.93
2017-11-03T01:42:57.429Z,81.99
2017-11-03T01:45:25.159Z,81.91
2017-11-03T01:47:52.829Z,82.26
2017-11-03T01:50:20.439Z,82.44
2017-11-03T01:52:48.152Z,82.51
2017-11-03T01:55:15.769Z,82.55
2017-11-03T01:57:43.445Z,82.54
2017-11-03T02:00:11.133Z,82.56
2017-11-03T02:02:38.760Z,82.91
2017-11-03T02:05:06.452Z,83.13
2017-11-03T02:07:34.140Z,83.18
2017-11-03T02:10:01.765Z,83.23
2017-11-03T02:12:29.375Z,83.33
2017-11-03T02:14:57.028Z,83.20
2017-11-03T02:17:24.635Z,83.35
2017-11-03T02:19:52.320Z,83.47
2017-11-03T02:22:20.080Z,83.68
2017-11-03T02:24:47.687Z,83.84
2017-11-03T02:27:15.357Z,83.95
2017-11-03T02:29:43.982Z,84.00
2017-11-03T02:32:11.594Z,83.92
2017-11-03T02:34:39.215Z,84.04
2017-11-03T02:37:06.900Z,84.20
2017-11-03T02:39:34.540Z,83.92
2017-11-03T02:42:02.149Z,84.07
2017-11-03T02:44:29.831Z,83.89
2017-11-03T02:46:57.510Z,84.08
2017-11-03T02:49:25.179Z,84.01
2017-11-03T02:51:52.901Z,84.37
2017-11-03T02:54:20.560Z,84.62
2017-11-03T02:56:48.224Z,84.50
2017-11-03T02:59:15.894Z,84.04
2017-11-03T03:01:43.561Z,84.14
2017-11-03T03:04:11.163Z,84.00
2017-11-03T03:06:38.889Z,84.11
2017-11-03T03:09:06.504Z,84.37
2017-11-03T03:11:34.116Z,84.16
2017-11-03T03:14:01.788Z,84.14
2017-11-03T03:16:29.392Z,84.12
2017-11-03T03:18:57.000Z,83.99
2017-11-03T03:21:24.670Z,84.00
2017-11-03T03:23:52.331Z,84.01
2017-11-03T03:26:19.998Z,83.88
2017-11-03T03:28:47.646Z,83.84
2017-11-03T03:31:15.259Z,84.04
2017-11-03T03:33:42.956Z,84.14
2017-11-03T03:36:10.620Z,84.21
2017-11-03T03:38:38.244Z,84.20
2017-11-03T03:41:05.856Z,84.32
2017-11-03T03:43:33.563Z,84.27
2017-11-03T03:46:01.244Z,84.33
2017-11-03T03:48:28.916Z,84.35
2017-11-03T03:50:56.652Z,84.38
2017-11-03T03:53:24.275Z,84.70
2017-11-03T03:55:51.973Z,84.69
2017-11-03T03:58:19.663Z,84.91
2017-11-03T04:00:47.333Z,84.88
2017-11-03T04:03:15.019Z,84.97
2017-11-03T04:05:42.703Z,84.98
2017-11-03T04:08:10.303Z,84.82
2017-11-03T04:10:38.011Z,84.61
2017-11-03T04:13:05.696Z,84.66
2017-11-03T04:15:33.298Z,84.56
2017-11-03T04:18:00.983Z,84.42
2017-11-03T04:20:28.688Z,84.06
2017-11-03T04:22:56.312Z,84.12
2017-11-03T04:25:23.944Z,83.83
2017-11-03T04:27:51.684Z,83.60
2017-11-03T04:30:19.298Z,83.42
2017-11-03T04:32:46.976Z,83.21
2017-11-03T04:35:14.728Z,83.33
2017-11-03T04:37:42.412Z,83.10
2017-11-03T04:40:10.091Z,82.99
2017-11-03T04:42:37.762Z,82.85
2017-11-03T04:45:05.372Z,82.92
2017-11-03T04:47:32.983Z,82.97
2017-11-03T04:50:00.659Z,82.96
2017-11-03T04:52:28.338Z,83.06
2017-11-03T04:54:55.952Z,82.99
2017-11-03T04:57:23.623Z,83.00
2017-11-03T04:59:51.235Z,82.52
2017-11-03T05:02:18.852Z,82.47
2017-11-03T05:04:46.573Z,81.79
2017-11-03T05:07:14.244Z,81.49
2017-11-03T05:09:41.851Z,81.78
2017-11-03T05:12:09.523Z,81.41
2017-11-03T05:14:37.145Z,81.18
2017-11-03T05:17:04.763Z,80.96
2017-11-03T05:19:32.448Z,80.70
2017-11-03T05:22:00.060Z,80.51
2017-11-03T05:24:27.667Z,80.64
2017-11-03T05:26:55.344Z,80.79
2017-11-03T05:29:22.953Z,80.92
2017-11-03T05:31:50.588Z,80.75
2017-11-03T05:34:18.261Z,80.85
2017-11-03T05:36:45.898Z,80.74
2017-11-03T05:39:13.519Z,80.88
2017-11-03T05:41:41.192Z,80.28
2017-11-03T05:44:08.810Z,80.02
2017-11-03T05:46:36.496Z,79.73
2017-11-03T05:49:04.224Z,79.54
2017-11-03T05:51:31.832Z,79.26
2017-11-03T05:53:59.446Z,78.42
2017-11-03T05:56:27.113Z,78.25
2017-11-03T05:58:54.715Z,78.39
2017-11-03T06:01:22.333Z,78.10
2017-11-03T06:03:50.009Z,77.68
2017-11-03T06:06:17.672Z,77.16
2017-11-03T06:08:45.296Z,76.41
2017-11-03T06:11:12.960Z,76.21
2017-11-03T06:13:40.620Z,75.65
2017-11-03T06:16:08.227Z,75.49
2017-11-03T06:18:35.934Z,74.51
2017-11-03T06:21:03.597Z,74.49
2017-11-03T06:23:31.307Z,73.98
2017-11-03T06:25:58.972Z,73.98
2017-11-03T06:28:26.579Z,73.97
2017-11-03T06:30:54.188Z,73.47
2017-11-03T06:33:21.840Z,73.48
2017-11-03T06:35:49.450Z,72.71
2017-11-03T06:38:17.123Z,72.70
2017-11-03T06:40:44.849Z,71.93
2017-11-03T06:43:12.520Z,70.87
2017-11-03T06:45:40.126Z,70.89
2017-11-03T06:48:07.833Z,70.40
2017-11-03T06:50:35.508Z,69.17
2017-11-03T06:53:03.131Z,69.48
2017-11-03T06:55:30.803Z,68.70
2017-11-03T06:57:58.423Z,66.73
2017-11-03T07:00:26.047Z,67.26
2017-11-03T07:02:53.760Z,66.37
2017-11-03T07:05:21.367Z,65.69
2017-11-03T07:07:49.040Z,65.62
2017-11-03T07:10:16.732Z,65.56
2017-11-03T07:12:44.368Z,65.63
2017-11-03T07:15:11.985Z,65.95
2017-11-03T07:17:39.687Z,65.78
2017-11-03T07:20:07.371Z,66.29
2017-11-03T07:22:34.972Z,65.24
2017-11-03T07:25:02.693Z,64.89
2017-11-03T07:27:30.307Z,62.28
2017-11-03T07:29:57.930Z,61.88
2017-11-03T07:32:25.604Z,61.21
2017-11-03T07:34:53.230Z,60.69
2017-11-03T07:37:20.843Z,61.17
2017-11-03T07:39:48.575Z,59.34
2017-11-03T07:42:16.192Z,58.98
2017-11-03T07:44:43.933Z,58.34
2017-11-03T07:47:11.635Z,58.34
2017-11-03T07:49:39.299Z,57.98
2017-11-03T07:52:07.027Z,57.78
2017-11-03T07:54:34.701Z,58.17
2017-11-03T07:57:02.337Z,58.10
2017-11-03T07:59:29.951Z,58.13
2017-11-03T08:01:57.612Z,57.84
2017-11-03T08:04:25.224Z,57.63
2017-11-03T08:06:52.834Z,57.32
2017-11-03T08:09:20.509Z,57.77
2017-11-03T08:11:48.133Z,57.21
2017-11-03T08:14:15.803Z,57.48
2017-11-03T08:16:43.447Z,56.92
2017-11-03T08:19:11.121Z,53.57
2017-11-03T08:21:38.796Z,51.05
2017-11-03T08:24:06.452Z,49.67
2017-11-03T08:26:34.068Z,48.77
2017-11-03T08:29:01.747Z,47.82
2017-11-03T08:31:29.480Z,47.41
2017-11-03T08:33:57.156Z,46.42
2017-11-03T08:36:24.769Z,46.45
2017-11-03T08:38:52.520Z,46.34
2017-11-03T08:41:20.136Z,48.28
2017-11-03T08:43:47.809Z,47.82
2017-11-03T08:46:15.515Z,47.48
2017-11-03T08:48:43.192Z,48.49
2017-11-03T08:51:10.884Z,48.67
2017-11-03T08:53:38.619Z,49.71
2017-11-03T08:56:06.245Z,48.76
2017-11-03T08:58:33.920Z,49.29
2017-11-03T09:01:01.647Z,49.43
2017-11-03T09:03:29.260Z,49.80
2017-11-03T09:05:56.976Z,50.91
2017-11-03T09:08:24.672Z,51.18
2017-11-03T09:10:52.293Z,50.57
2017-11-03T09:13:19.930Z,50.84
2017-11-03T09:15:47.629Z,51.41
2017-11-03T09:18:15.253Z,51.09
2017-11-03T09:20:42.895Z,51.00
2017-11-03T09:23:10.582Z,51.33
2017-11-03T09:25:38.227Z,51.17
2017-11-03T09:28:05.847Z,51.48
2017-11-03T09:30:33.617Z,51.17
2017-11-03T09:33:01.310Z,51.24
2017-11-03T09:35:28.972Z,50.89
2017-11-03T09:37:56.707Z,50.91
2017-11-03T09:40:24.395Z,51.11
2017-11-03T09:42:52.056Z,50.83
2017-11-03T09:45:19.735Z,50.66
2017-11-03T09:47:47.344Z,50.77
2017-11-03T09:50:14.966Z,51.11
2017-11-03T09:52:42.688Z,51.11
2017-11-03T09:55:10.360Z,50.91
2017-11-03T09:57:37.977Z,50.88
2017-11-03T10:00:05.670Z,50.70
2017-11-03T10:02:33.313Z,50.39
2017-11-03T10:05:00.989Z,51.19
2017-11-03T10:07:28.674Z,50.46
2017-11-03T10:09:56.373Z,50.52
2017-11-03T10:12:24.037Z,50.76
2017-11-03T10:14:51.739Z,50.76
2017-11-03T10:17:19.361Z,50.49
2017-11-03T10:19:46.984Z,50.21
2017-11-03T10:22:14.655Z,50.46
2017-11-03T10:24:42.334Z,50.63
2017-11-03T10:27:09.945Z,50.25
2017-11-03T10:29:37.613Z,51.09
2017-11-03T10:32:05.285Z,50.67
2017-11-03T10:34:32.900Z,50.72
2017-11-03T10:37:00.615Z,52.33
2017-11-03T10:39:28.228Z,53.29
2017-11-03T10:41:55.856Z,53.74
2017-11-03T10:44:23.520Z,53.76
2017-11-03T10:46:51.201Z,54.61
2017-11-03T10:49:18.807Z,53.34
2017-11-03T10:51:46.614Z,54.80
2017-11-03T10:54:14.231Z,54.09
2017-11-03T10:56:41.852Z,54.11
2017-11-03T10:59:09.514Z,53.70
2017-11-03T11:01:37.172Z,53.73
2017-11-03T11:04:04.803Z,53.76
2017-11-03T11:06:32.545Z,52.84
2017-11-03T11:09:00.228Z,52.65
2017-11-03T11:11:27.912Z,52.49
2017-11-03T11:13:55.629Z,51.82
2017-11-03T11:16:23.300Z,52.53
2017-11-03T11:18:50.908Z,51.40
2017-11-03T11:21:18.598Z,51.45
2017-11-03T11:23:46.206Z,51.72
2017-11-03T11:26:13.899Z,51.12
2017-11-03T11:28:41.596Z,51.62
2017-11-03T11:31:09.208Z,51.82
2017-11-03T11:33:36.836Z,51.27
2017-11-03T11:36:04.548Z,52.24
2017-11-03T11:38:32.187Z,53.59
2017-11-03T11:40:59.807Z,54.90
2017-11-03T11:43:27.489Z,54.46
2017-11-03T11:45:55.198Z,55.00
2017-11-03T11:48:22.832Z,54.75
2017-11-03T11:50:50.532Z,54.82
2017-11-03T11:53:18.214Z,55.22
2017-11-03T11:55:45.900Z,55.13
2017-11-03T11:58:13.583Z,54.82
2017-11-03T12:00:41.402Z,54.42
2017-11-03T12:03:09.039Z,55.19
2017-11-03T12:05:36.715Z,54.80
2017-11-03T12:08:04.343Z,55.18
2017-11-03T12:10:32.027Z,54.90
2017-11-03T12:12:59.735Z,54.81
2017-11-03T12:15:27.362Z,55.07
2017-11-03T12:17:54.987Z,54.95
2017-11-03T12:20:22.728Z,55.15
2017-11-03T12:22:50.426Z,54.67
2017-11-03T12:25:18.102Z,54.76
2017-11-03T12:27:45.804Z,54.86
2017-11-03T12:30:13.443Z,55.38
2017-11-03T12:32:41.080Z,55.86
2017-11-03T12:35:08.837Z,55.33
2017-11-03T12:37:36.465Z,56.13
2017-11-03T12:40:04.099Z,57.03
2017-11-03T12:42:31.892Z,57.45
2017-11-03T12:44:59.514Z,58.99
2017-11-03T12:47:27.207Z,60.71
2017-11-03T12:49:54.885Z,61.88
2017-11-03T12:52:22.662Z,63.76
2017-11-03T12:54:50.284Z,63.87
2017-11-03T12:57:17.970Z,63.61
2017-11-03T12:59:45.600Z,62.72
2017-11-03T13:02:13.276Z,63.51
2017-11-03T13:04:40.974Z,62.80
2017-11-03T13:07:08.616Z,61.87
2017-11-03T13:09:36.316Z,60.49
2017-11-03T13:12:03.996Z,61.05
2017-11-03T13:14:31.672Z,60.91
2017-11-03T13:16:59.364Z,59.88
2017-11-03T13:19:27.044Z,59.78
2017-11-03T13:21:54.723Z,59.09
2017-11-03T13:24:22.410Z,59.34
2017-11-03T13:26:50.158Z,57.86
2017-11-03T13:29:17.848Z,58.68
2017-11-03T13:31:45.527Z,58.16
2017-11-03T13:34:13.232Z,58.25
2017-11-03T13:36:40.880Z,57.73
2017-11-03T13:39:08.506Z,58.04
2017-11-03T13:41:36.291Z,58.49
2017-11-03T13:44:04.028Z,58.03
2017-11-03T13:46:31.713Z,57.71
2017-11-03T13:48:59.443Z,57.77
2017-11-03T13:51:27.079Z,57.99
2017-11-03T13:53:54.713Z,58.07
2017-11-03T13:56:22.535Z,58.34
2017-11-03T13:58:50.219Z,58.88
2017-11-03T14:01:17.841Z,58.86
2017-11-03T14:03:46.547Z,59.00
2017-11-03T14:06:14.239Z,59.02
2017-11-03T14:08:41.892Z,58.69
2017-11-03T14:11:09.651Z,59.12
2017-11-03T14:13:37.276Z,59.53
2017-11-03T14:16:04.891Z,59.22
2017-11-03T14:18:32.573Z,59.77
2017-11-03T14:21:00.191Z,59.37
2017-11-03T14:23:27.864Z,60.08
2017-11-03T14:25:55.556Z,59.90
2017-11-03T14:28:23.160Z,60.41
2017-11-03T14:30:50.771Z,60.55
2017-11-03T14:33:18.435Z,60.58
2017-11-03T14:35:46.052Z,60.84
2017-11-03T14:38:13.684Z,61.11
2017-11-03T14:40:41.907Z,61.81
2017-11-03T14:43:09.524Z,62.22
2017-11-03T14:45:37.143Z,61.99
2017-11-03T14:48:05.267Z,61.91
2017-11-03T14:50:32.937Z,62.08
2017-11-03T14:53:00.558Z,62.54
2017-11-03T14:55:28.291Z,62.87
2017-11-03T14:57:55.973Z,63.09
2017-11-03T15:00:23.590Z,62.76
2017-11-03T15:02:51.271Z,63.10
2017-11-03T15:05:18.892Z,62.97
2017-11-03T15:07:47.331Z,63.28
2017-11-03T15:10:15.003Z,63.68
2017-11-03T15:12:43.504Z,63.48
2017-11-03T15:15:11.184Z,63.87
2017-11-03T15:17:39.503Z,64.72
2017-11-03T15:20:07.131Z,64.45
2017-11-03T15:22:34.796Z,64.85
2017-11-03T15:25:02.529Z,64.88
2017-11-03T15:27:30.209Z,64.90
2017-11-03T15:29:57.896Z,65.14
2017-11-03T15:32:25.627Z,65.14
2017-11-03T15:34:53.254Z,65.09
2017-11-03T15:37:20.902Z,65.18
2017-11-03T15:39:48.567Z,64.94
2017-11-03T15:42:16.185Z,65.43
2017-11-03T15:44:43.801Z,64.96
2017-11-03T15:47:11.471Z,65.34
2017-11-03T15:49:39.156Z,64.95
2017-11-03T15:52:06.836Z,65.19
2017-11-03T15:54:34.584Z,64.73
2017-11-03T15:57:02.194Z,64.93
2017-11-03T15:59:29.880Z,65.08
2017-11-03T16:01:57.636Z,65.84
2017-11-03T16:04:25.251Z,66.37
2017-11-03T16:06:52.871Z,66.55
2017-11-03T16:09:20.532Z,67.27
2017-11-03T16:11:48.212Z,67.98
2017-11-03T16:14:15.892Z,69.31
2017-11-03T16:16:43.640Z,68.90
2017-11-03T16:19:11.251Z,68.37
2017-11-03T16:21:38.880Z,68.99
2017-11-03T16:24:06.599Z,69.74
2017-11-03T16:26:34.284Z,71.02
2017-11-03T16:29:01.900Z,71.19
2017-11-03T16:31:29.571Z,71.87
2017-11-03T16:33:57.195Z,72.40
2017-11-03T16:36:24.816Z,73.63
2017-11-03T16:38:52.560Z,72.21
2017-11-03T16:41:20.180Z,72.81
2017-11-03T16:43:47.903Z,72.05
2017-11-03T16:46:15.642Z,73.05
2017-11-03T16:48:43.316Z,73.84
2017-11-03T16:51:10.940Z,74.24
2017-11-03T16:53:38.615Z,72.80
2017-11-03T16:56:06.359Z,73.59
2017-11-03T16:58:33.967Z,73.93
2017-11-03T17:01:01.657Z,74.05
2017-11-03T17:03:29.287Z,74.47
2017-11-03T17:05:56.908Z,74.41
2017-11-03T17:08:24.581Z,74.28
2017-11-03T17:10:52.208Z,74.60
2017-11-03T17:13:19.931Z,74.62
2017-11-03T17:15:47.670Z,74.95
2017-11-03T17:18:15.294Z,75.25
2017-11-03T17:20:42.968Z,75.34
2017-11-03T17:23:10.692Z,75.12
2017-11-03T17:25:38.360Z,75.74
2017-11-03T17:28:05.985Z,75.20
2017-11-03T17:30:33.743Z,75.79
2017-11-03T17:33:01.360Z,76.39
2017-11-03T17:35:28.969Z,76.71
2017-11-03T17:37:56.632Z,76.39
2017-11-03T17:40:24.243Z,76.19
2017-11-03T17:42:51.861Z,76.85
2017-11-03T17:45:19.535Z,76.40
2017-11-03T17:47:47.275Z,76.42
2017-11-03T17:50:14.899Z,76.35
2017-11-03T17:52:42.568Z,75.82
2017-11-03T17:55:10.181Z,75.73
2017-11-03T17:57:37.808Z,75.73
2017-11-03T18:00:05.564Z,75.40
2017-11-03T18:02:33.179Z,75.17
2017-11-03T18:05:00.820Z,74.83
2017-11-03T18:07:28.561Z,74.51
2017-11-03T18:09:56.304Z,74.32
2017-11-03T18:12:23.932Z,74.15
2017-11-03T18:14:51.612Z,73.91
2017-11-03T18:17:19.225Z,73.17
2017-11-03T18:19:46.867Z,73.51
2017-11-03T18:22:14.670Z,73.02
2017-11-03T18:24:42.376Z,73.51
2017-11-03T18:27:10.009Z,73.50
2017-11-03T18:29:37.834Z,73.67
2017-11-03T18:32:05.516Z,72.82
2017-11-03T18:34:33.154Z,72.07
2017-11-03T18:37:00.829Z,72.03
2017-11-03T18:39:28.500Z,71.82
2017-11-03T18:41:56.130Z,71.80
2017-11-03T18:44:23.800Z,71.99
2017-11-03T18:46:51.476Z,71.95
2017-11-03T18:49:19.215Z,72.08
2017-11-03T18:51:46.913Z,71.42
2017-11-03T18:54:14.624Z,71.87
2017-11-03T18:56:42.239Z,71.53
2017-11-03T18:59:09.927Z,71.64
2017-11-03T19:01:37.617Z,72.13
2017-11-03T19:04:05.252Z,71.91
2017-11-03T19:06:32.984Z,71.62
2017-11-03T19:09:00.619Z,71.53
2017-11-03T19:11:28.251Z,71.89
2017-11-03T19:13:55.939Z,71.67
2017-11-03T19:16:23.630Z,71.62
2017-11-03T19:18:51.252Z,71.76
2017-11-03T19:21:18.948Z,71.35
2017-11-03T19:23:46.627Z,71.98
2017-11-03T19:26:14.241Z,71.65
2017-11-03T19:28:41.923Z,72.13
2017-11-03T19:31:09.550Z,71.57
2017-11-03T19:33:37.187Z,72.22
2017-11-03T19:36:04.907Z,72.21
2017-11-03T19:38:32.579Z,72.02
2017-11-03T19:41:00.258Z,72.20
2017-11-03T19:43:27.939Z,72.58
2017-11-03T19:45:55.558Z,72.29
2017-11-03T19:48:23.211Z,71.83
2017-11-03T19:50:50.868Z,72.43
2017-11-03T19:53:18.502Z,72.42
2017-11-03T19:55:46.635Z,72.35
2017-11-03T19:58:14.364Z,72.53
2017-11-03T20:00:42.016Z,72.92
2017-11-03T20:03:09.642Z,73.03
2017-11-03T20:05:37.305Z,72.93
2017-11-03T20:08:05.017Z,72.95
2017-11-03T20:10:32.704Z,73.04
2017-11-03T20:13:00.384Z,73.44
2017-11-03T20:15:28.065Z,73.76
2017-11-03T20:17:55.752Z,74.17
2017-11-03T20:20:23.484Z,74.50
2017-11-03T20:22:51.096Z,75.29
2017-11-03T20:25:18.723Z,75.48
2017-11-03T20:27:46.409Z,75.70
2017-11-03T20:30:14.027Z,75.93
2017-11-03T20:32:41.660Z,75.99
2017-11-03T20:35:09.327Z,76.11
2017-11-03T20:37:36.957Z,76.41
2017-11-03T20:40:04.611Z,76.42
2017-11-03T20:42:32.351Z,76.49
2017-11-03T20:45:00.031Z,76.40
2017-11-03T20:47:27.646Z,76.14
2017-11-03T20:49:55.380Z,76.07
2017-11-03T20:52:23.010Z,75.91
2017-11-03T20:54:50.624Z,75.92
2017-11-03T20:57:18.633Z,75.76
2017-11-03T20:59:46.255Z,75.64
2017-11-03T21:02:13.938Z,75.74
2017-11-03T21:04:41.618Z,75.67
2017-11-03T21:07:09.302Z,76.18
2017-11-03T21:09:36.928Z,75.84
2017-11-03T21:12:04.627Z,75.77
2017-11-03T21:14:32.258Z,75.45
2017-11-03T21:16:59.883Z,75.66
2017-11-03T21:19:27.656Z,75.76
2017-11-03T21:21:55.327Z,75.92
2017-11-03T21:24:23.011Z,76.16
2017-11-03T21:26:50.679Z,76.00
2017-11-03T21:29:18.360Z,75.78
2017-11-03T21:31:45.975Z,75.99
2017-11-03T21:34:13.733Z,75.94
2017-11-03T21:36:41.348Z,75.97
2017-11-03T21:39:08.971Z,75.97
2017-11-03T21:41:36.641Z,76.25
2017-11-03T21:44:04.258Z,76.29
2017-11-03T21:46:31.932Z,76.31
2017-11-03T21:48:59.700Z,76.33
2017-11-03T21:51:27.317Z,76.28
2017-11-03T21:53:54.998Z,76.45
2017-11-03T21:56:22.670Z,76.30
2017-11-03T21:58:50.287Z,76.67
2017-11-03T22:01:17.899Z,76.64
2017-11-03T22:03:45.564Z,76.60
2017-11-03T22:06:13.248Z,76.54
2017-11-03T22:08:40.878Z,76.64
2017-11-03T22:11:08.552Z,76.85
2017-11-03T22:13:36.232Z,76.92
2017-11-03T22:16:04.041Z,77.03
2017-11-03T22:18:31.780Z,77.12
2017-11-03T22:20:59.395Z,77.20
2017-11-03T22:23:27.072Z,77.14
2017-11-03T22:25:54.820Z,77.05
2017-11-03T22:28:22.436Z,76.96
2017-11-03T22:30:50.121Z,77.12
2017-11-03T22:33:17.794Z,77.09
2017-11-03T22:35:45.399Z,77.02
2017-11-03T22:38:13.067Z,76.81
2017-11-03T22:40:40.727Z,76.96
2017-11-03T22:43:08.344Z,77.28
2017-11-03T22:45:35.967Z,77.91
2017-11-03T22:48:03.701Z,77.68
2017-11-03T22:50:31.391Z,77.95
2017-11-03T22:52:59.003Z,77.87
2017-11-03T22:55:26.729Z,77.87
2017-11-03T22:57:54.400Z,77.99
2017-11-03T23:00:22.011Z,78.47
2017-11-03T23:02:49.716Z,78.65
2017-11-03T23:05:17.326Z,79.01
2017-11-03T23:07:45.002Z,79.38
2017-11-03T23:10:12.726Z,79.40
2017-11-03T23:12:40.424Z,79.58
2017-11-03T23:15:08.109Z,79.71
2017-11-03T23:17:35.837Z,79.89
2017-11-03T23:20:03.571Z,80.16
2017-11-03T23:22:31.191Z,80.30
2017-11-03T23:24:58.857Z,80.31
2017-11-03T23:27:26.547Z,80.51
2017-11-03T23:29:54.236Z,80.43
2017-11-03T23:32:21.903Z,80.56
2017-11-03T23:34:49.580Z,80.58
2017-11-03T23:37:17.269Z,80.63
2017-11-03T23:39:44.932Z,80.68
2017-11-03T23:42:12.552Z,80.72
2017-11-03T23:44:40.163Z,80.87
2017-11-03T23:47:07.940Z,80.87
2017-11-03T23:49:35.559Z,80.84
2017-11-03T23:52:03.181Z,80.85
2017-11-03T23:54:30.924Z,80.90
2017-11-03T23:56:58.600Z,80.88
2017-11-03T23:59:26.232Z,80.94
